createdAt,value
2022-11-29T00:01:32.051Z,96873.56
2022-11-29T00:03:59.314Z,96893.72
2022-11-29T00:06:31.135Z,96906.03
2022-11-29T00:09:01.890Z,96908.81
2022-11-29T00:11:51.756Z,96929.69
2022-11-29T00:14:19.774Z,96925.22
2022-11-29T00:16:50.832Z,96935.56
2022-11-29T00:19:17.260Z,96936.38
2022-11-29T00:21:43.668Z,96931.78
2022-11-29T00:24:10.257Z,96944.91
2022-11-29T00:26:37.173Z,96941.31
2022-11-29T00:29:03.993Z,96952.72
2022-11-29T00:31:32.550Z,96939.28
2022-11-29T00:34:01.239Z,96935.00
2022-11-29T00:36:28.010Z,96913.84
2022-11-29T00:38:54.436Z,96922.44
2022-11-29T00:41:21.105Z,96920.91
2022-11-29T00:43:47.537Z,96893.38
2022-11-29T00:46:14.154Z,96890.75
2022-11-29T00:48:40.619Z,96906.44
2022-11-29T00:51:07.143Z,96888.41
2022-11-29T00:53:34.599Z,96882.50
2022-11-29T00:56:02.123Z,96877.25
2022-11-29T00:58:29.326Z,96875.00
2022-11-29T01:00:56.225Z,96875.31
2022-11-29T01:03:23.584Z,96876.78
2022-11-29T01:05:50.391Z,96868.63
2022-11-29T01:08:17.377Z,96863.00
2022-11-29T01:10:44.227Z,96862.69
2022-11-29T01:13:11.771Z,96862.91
2022-11-29T01:15:38.375Z,96862.72
2022-11-29T01:18:05.002Z,96875.34
2022-11-29T01:20:31.514Z,96879.56
2022-11-29T01:22:58.336Z,96882.53
2022-11-29T01:25:24.897Z,96879.47
2022-11-29T01:27:51.416Z,96881.72
2022-11-29T01:30:17.853Z,96888.50
2022-11-29T01:32:44.307Z,96878.41
2022-11-29T01:35:10.847Z,96873.50
2022-11-29T01:37:37.378Z,96875.94
2022-11-29T01:40:04.125Z,96914.31
2022-11-29T01:42:30.535Z,96908.91
2022-11-29T01:45:08.171Z,96913.66
2022-11-29T01:47:41.917Z,96908.28
2022-11-29T01:50:08.711Z,96913.31
2022-11-29T01:52:35.459Z,96884.78
2022-11-29T01:55:04.439Z,96912.03
2022-11-29T01:57:33.880Z,96896.59
2022-11-29T02:00:06.441Z,96881.84
2022-11-29T02:02:45.518Z,96878.06
2022-11-29T02:05:15.105Z,96870.72
2022-11-29T02:07:45.761Z,96869.38
2022-11-29T02:10:13.911Z,96866.59
2022-11-29T02:12:56.274Z,96866.59
2022-11-29T02:15:33.287Z,96860.53
2022-11-29T02:18:05.076Z,96860.53
2022-11-29T02:20:59.293Z,96859.88
2022-11-29T02:23:28.619Z,96810.97
2022-11-29T02:26:13.352Z,96859.88
2022-11-29T02:28:46.212Z,96856.25
2022-11-29T02:31:44.247Z,96855.63
2022-11-29T02:34:15.195Z,96864.16
2022-11-29T02:37:08.591Z,96858.25
2022-11-29T02:39:56.501Z,96867.47
2022-11-29T02:42:56.027Z,96868.97
2022-11-29T02:45:44.261Z,96867.81
2022-11-29T02:48:28.969Z,96871.09
2022-11-29T02:51:09.713Z,96879.94
2022-11-29T02:53:47.399Z,96876.13
2022-11-29T02:56:32.496Z,96876.34
2022-11-29T02:59:12.283Z,96859.25
2022-11-29T03:01:48.642Z,96879.28
2022-11-29T03:04:30.269Z,96886.84
2022-11-29T03:07:13.565Z,96874.38
2022-11-29T03:09:49.388Z,96896.00
2022-11-29T03:12:31.282Z,96897.00
2022-11-29T03:15:13.755Z,96887.44
2022-11-29T03:18:01.792Z,96906.19
2022-11-29T03:21:03.728Z,96906.81
2022-11-29T03:23:39.068Z,96924.50
2022-11-29T03:26:10.607Z,96931.56
2022-11-29T03:28:43.466Z,96930.06
2022-11-29T03:31:31.855Z,96930.06
2022-11-29T03:34:30.504Z,96918.47
2022-11-29T03:37:13.507Z,96929.81
2022-11-29T03:39:59.657Z,96938.03
2022-11-29T03:42:38.355Z,96944.59
2022-11-29T03:45:26.039Z,96943.28
2022-11-29T03:48:07.484Z,96957.34
2022-11-29T03:50:39.020Z,96932.78
2022-11-29T03:53:28.379Z,96934.59
2022-11-29T03:55:59.805Z,96922.13
2022-11-29T03:58:56.537Z,96932.94
2022-11-29T04:02:00.032Z,96932.44
2022-11-29T04:05:01.761Z,96924.19
2022-11-29T04:07:55.648Z,96887.06
2022-11-29T04:10:24.776Z,96940.91
2022-11-29T04:13:05.837Z,96913.56
2022-11-29T04:16:09.909Z,96910.28
2022-11-29T04:18:54.772Z,96920.59
2022-11-29T04:21:49.697Z,96911.94
2022-11-29T04:24:50.298Z,96906.50
2022-11-29T04:27:25.937Z,96909.81
2022-11-29T04:30:03.543Z,96907.34
2022-11-29T04:32:53.997Z,96905.88
2022-11-29T04:35:30.437Z,96914.91
2022-11-29T04:38:33.289Z,96909.47
2022-11-29T04:41:26.733Z,96918.34
2022-11-29T04:44:25.170Z,96900.94
2022-11-29T04:47:06.480Z,96929.19
2022-11-29T04:49:58.205Z,96915.06
2022-11-29T04:52:36.678Z,96934.44
2022-11-29T04:55:37.130Z,96953.78
2022-11-29T04:58:18.201Z,96956.72
2022-11-29T05:01:00.430Z,96969.69
2022-11-29T05:03:57.535Z,96979.97
2022-11-29T05:06:36.021Z,96965.94
2022-11-29T05:09:14.259Z,96939.50
2022-11-29T05:12:28.275Z,96961.00
2022-11-29T05:15:28.691Z,96959.34
2022-11-29T05:18:10.300Z,96962.66
2022-11-29T05:21:05.064Z,96972.47
2022-11-29T05:23:47.897Z,96959.31
2022-11-29T05:26:40.547Z,96956.88
2022-11-29T05:29:24.454Z,96949.84
2022-11-29T05:32:16.762Z,96960.00
2022-11-29T05:35:02.399Z,96937.13
2022-11-29T05:37:51.950Z,96960.16
2022-11-29T05:40:30.842Z,96936.06
2022-11-29T05:43:16.610Z,96933.47
2022-11-29T05:46:02.601Z,96932.13
2022-11-29T05:48:45.037Z,96939.69
2022-11-29T05:51:23.067Z,96942.66
2022-11-29T05:54:08.053Z,96941.31
2022-11-29T05:56:47.250Z,96963.94
2022-11-29T05:59:20.691Z,96968.56
2022-11-29T06:01:59.577Z,96971.50
2022-11-29T06:05:04.054Z,96974.97
2022-11-29T06:07:40.675Z,96976.66
2022-11-29T06:10:17.624Z,96988.06
2022-11-29T06:13:18.749Z,96977.41
2022-11-29T06:15:57.789Z,96976.78
2022-11-29T06:18:55.575Z,96985.28
2022-11-29T06:22:00.170Z,96982.81
2022-11-29T06:24:41.572Z,96982.00
2022-11-29T06:27:21.777Z,96981.66
2022-11-29T06:30:09.261Z,96979.97
2022-11-29T06:32:40.176Z,96980.19
2022-11-29T06:35:48.366Z,96970.84
2022-11-29T06:38:24.600Z,96958.06
2022-11-29T06:40:51.458Z,96972.31
2022-11-29T06:43:18.293Z,96956.41
2022-11-29T06:45:56.000Z,96950.69
2022-11-29T06:48:26.077Z,96959.03
2022-11-29T06:51:31.054Z,96959.88
2022-11-29T06:54:08.695Z,96966.47
2022-11-29T06:56:48.454Z,96967.94
2022-11-29T06:59:30.659Z,96971.53
2022-11-29T07:02:04.971Z,96972.50
2022-11-29T07:04:53.364Z,96987.63
2022-11-29T07:07:21.947Z,96987.63
2022-11-29T07:09:51.404Z,96989.09
2022-11-29T07:12:18.335Z,97015.84
2022-11-29T07:14:45.332Z,96995.81
2022-11-29T07:17:25.763Z,97019.13
2022-11-29T07:20:08.085Z,97031.91
2022-11-29T07:22:54.250Z,97039.75
2022-11-29T07:25:29.248Z,97030.94
2022-11-29T07:28:14.491Z,97039.94
2022-11-29T07:30:53.285Z,97031.59
2022-11-29T07:33:42.010Z,97041.44
2022-11-29T07:36:18.849Z,97023.25
2022-11-29T07:38:51.344Z,97032.47
2022-11-29T07:41:40.956Z,97054.09
2022-11-29T07:44:30.271Z,97059.69
2022-11-29T07:46:56.688Z,97080.47
2022-11-29T07:49:23.136Z,97074.13
2022-11-29T07:51:49.647Z,97095.28
2022-11-29T07:54:18.608Z,97079.47
2022-11-29T07:56:45.030Z,97082.47
2022-11-29T07:59:12.908Z,97077.19
2022-11-29T08:01:40.012Z,97112.31
2022-11-29T08:04:07.380Z,97093.22
2022-11-29T08:06:34.197Z,97082.63
2022-11-29T08:09:01.139Z,97093.03
2022-11-29T08:11:28.430Z,97061.91
2022-11-29T08:13:59.757Z,97106.47
2022-11-29T08:16:26.809Z,97120.91
2022-11-29T08:18:53.280Z,97124.88
2022-11-29T08:21:19.783Z,97114.38
2022-11-29T08:23:50.413Z,97128.19
2022-11-29T08:26:18.248Z,97144.44
2022-11-29T08:28:45.002Z,97147.06
2022-11-29T08:31:13.125Z,97131.09
2022-11-29T08:33:42.436Z,97164.63
2022-11-29T08:36:13.944Z,97175.63
2022-11-29T08:38:40.646Z,97161.31
2022-11-29T08:41:12.832Z,97188.97
2022-11-29T08:43:39.722Z,97199.00
2022-11-29T08:46:06.329Z,97212.69
2022-11-29T08:48:32.809Z,97215.69
2022-11-29T08:50:59.620Z,97213.88
2022-11-29T08:53:41.324Z,97201.38
2022-11-29T08:59:05.595Z,97217.56
2022-11-29T09:01:32.019Z,97225.13
2022-11-29T09:04:05.043Z,97227.41
2022-11-29T09:06:38.759Z,97236.09
2022-11-29T09:09:05.449Z,97245.16
2022-11-29T09:11:34.012Z,97240.19
2022-11-29T09:14:04.209Z,97242.34
2022-11-29T09:16:34.589Z,97237.94
2022-11-29T09:19:01.515Z,97220.84
2022-11-29T09:21:30.246Z,97241.09
2022-11-29T09:23:59.996Z,97218.03
2022-11-29T09:26:32.014Z,97239.94
2022-11-29T09:29:01.186Z,97240.28
2022-11-29T09:31:29.164Z,97229.59
2022-11-29T09:33:55.922Z,97238.94
2022-11-29T09:36:28.102Z,97234.03
2022-11-29T09:38:55.555Z,97240.28
2022-11-29T09:41:48.510Z,97241.16
2022-11-29T09:44:37.637Z,97226.94
2022-11-29T09:47:28.591Z,97236.06
2022-11-29T09:50:11.983Z,97244.22
2022-11-29T09:52:49.179Z,97245.56
2022-11-29T09:55:43.219Z,97251.84
2022-11-29T09:58:15.411Z,97251.31
2022-11-29T10:00:48.523Z,97257.09
2022-11-29T10:03:25.440Z,97268.59
2022-11-29T10:05:59.868Z,97257.63
2022-11-29T10:08:29.247Z,97261.56
2022-11-29T10:11:05.170Z,97267.97
2022-11-29T10:13:35.035Z,97272.72
2022-11-29T10:16:19.220Z,97282.13
2022-11-29T10:18:55.866Z,97291.25
2022-11-29T10:21:27.944Z,97262.03
2022-11-29T10:24:01.760Z,97299.34
2022-11-29T10:26:32.104Z,97284.38
2022-11-29T10:29:01.625Z,97293.44
2022-11-29T10:31:39.207Z,97292.94
2022-11-29T10:34:23.908Z,97302.81
2022-11-29T10:36:53.787Z,97320.88
2022-11-29T10:39:31.002Z,97305.16
2022-11-29T10:42:01.538Z,97317.00
2022-11-29T10:44:28.648Z,97318.66
2022-11-29T10:46:55.996Z,97331.16
2022-11-29T10:49:27.281Z,97333.13
2022-11-29T10:51:53.694Z,97346.31
2022-11-29T10:54:39.996Z,97353.72
2022-11-29T10:57:14.815Z,97352.25
2022-11-29T10:59:50.333Z,97365.56
2022-11-29T11:02:22.479Z,97369.84
2022-11-29T11:04:50.227Z,97389.09
2022-11-29T11:07:28.746Z,97400.63
2022-11-29T11:09:57.139Z,97417.47
2022-11-29T11:12:30.158Z,97412.47
2022-11-29T11:15:30.250Z,97427.56
2022-11-29T11:18:01.138Z,97436.28
2022-11-29T11:20:30.434Z,97443.22
2022-11-29T11:23:06.846Z,97455.13
2022-11-29T11:25:42.299Z,97466.34
2022-11-29T11:28:20.845Z,97454.56
2022-11-29T11:31:08.356Z,97469.31
2022-11-29T11:33:38.134Z,97468.88
2022-11-29T11:36:15.002Z,97476.63
2022-11-29T11:38:59.157Z,97489.69
2022-11-29T11:41:51.712Z,97505.50
2022-11-29T11:44:46.477Z,97498.78
2022-11-29T11:47:27.208Z,97500.53
2022-11-29T11:50:04.412Z,97504.03
2022-11-29T11:52:40.219Z,97501.47
2022-11-29T11:55:27.938Z,97502.06
2022-11-29T11:58:10.127Z,97502.56
2022-11-29T12:01:02.351Z,97509.91
2022-11-29T12:03:38.212Z,97502.13
2022-11-29T12:06:18.300Z,97506.09
2022-11-29T12:08:48.378Z,97494.28
2022-11-29T12:11:17.389Z,97492.63
2022-11-29T12:13:49.147Z,97480.09
2022-11-29T12:16:27.430Z,97520.72
2022-11-29T12:19:17.683Z,97521.50
2022-11-29T12:21:52.417Z,97519.94
2022-11-29T12:24:23.351Z,97523.34
2022-11-29T12:26:59.148Z,97522.38
2022-11-29T12:29:29.180Z,97530.63
2022-11-29T12:32:10.766Z,97532.47
2022-11-29T12:34:58.602Z,97542.28
2022-11-29T12:37:37.111Z,97542.81
2022-11-29T12:40:06.162Z,97539.63
2022-11-29T12:42:47.558Z,97546.53
2022-11-29T12:45:34.519Z,97537.03
2022-11-29T12:48:31.722Z,97544.06
2022-11-29T12:51:27.658Z,97535.41
2022-11-29T12:54:24.631Z,97506.19
2022-11-29T12:57:23.454Z,97566.34
2022-11-29T13:00:20.563Z,97561.94
2022-11-29T13:02:58.970Z,97566.25
2022-11-29T13:05:41.339Z,97545.94
2022-11-29T13:08:32.602Z,97576.66
2022-11-29T13:11:17.494Z,97571.69
2022-11-29T13:13:48.300Z,97569.06
2022-11-29T13:16:42.575Z,97575.31
2022-11-29T13:19:18.731Z,97588.44
2022-11-29T13:22:18.726Z,97593.47
2022-11-29T13:24:53.409Z,97588.22
2022-11-29T13:27:28.496Z,97580.31
2022-11-29T13:29:56.141Z,97573.56
2022-11-29T13:32:31.578Z,97590.50
2022-11-29T13:35:04.784Z,97588.22
2022-11-29T13:37:43.422Z,97577.84
2022-11-29T13:40:28.544Z,97592.03
2022-11-29T13:43:18.540Z,97579.13
2022-11-29T13:45:55.706Z,97595.34
2022-11-29T13:48:37.077Z,97596.78
2022-11-29T13:51:25.831Z,97602.56
2022-11-29T13:53:54.962Z,97607.47
2022-11-29T13:56:47.656Z,97603.81
2022-11-29T13:59:28.871Z,97607.09
2022-11-29T14:01:57.006Z,97611.94
2022-11-29T14:04:23.486Z,97615.78
2022-11-29T14:07:01.512Z,97618.25
2022-11-29T14:09:59.529Z,97621.75
2022-11-29T14:13:02.023Z,97619.78
2022-11-29T14:15:32.625Z,97609.06
2022-11-29T14:18:03.200Z,97619.91
2022-11-29T14:20:29.574Z,97620.81
2022-11-29T14:23:04.897Z,97617.56
2022-11-29T14:26:12.729Z,97621.13
2022-11-29T14:28:39.724Z,97614.81
2022-11-29T14:31:07.801Z,97616.19
2022-11-29T14:33:37.373Z,97615.41
2022-11-29T14:36:17.862Z,97616.28
2022-11-29T14:39:04.363Z,97615.25
2022-11-29T14:41:50.773Z,97625.78
2022-11-29T14:44:24.680Z,97630.16
2022-11-29T14:47:24.123Z,97626.03
2022-11-29T14:49:52.995Z,97621.06
2022-11-29T14:52:33.633Z,97614.31
2022-11-29T14:55:03.085Z,97628.34
2022-11-29T14:57:48.038Z,97620.72
2022-11-29T15:00:16.903Z,97622.97
2022-11-29T15:03:15.670Z,97608.53
2022-11-29T15:05:50.817Z,97599.91
2022-11-29T15:08:30.163Z,97594.72
2022-11-29T15:11:05.797Z,97599.06
2022-11-29T15:13:35.277Z,97547.41
2022-11-29T15:16:25.486Z,97576.63
2022-11-29T15:19:27.205Z,97563.19
2022-11-29T15:22:12.607Z,97565.44
2022-11-29T15:25:03.280Z,97550.81
2022-11-29T15:27:29.677Z,97523.31
2022-11-29T15:29:56.417Z,97533.06
2022-11-29T15:32:32.553Z,97521.72
2022-11-29T15:34:59.518Z,97504.94
2022-11-29T15:37:31.688Z,97509.69
2022-11-29T15:40:16.990Z,97505.88
2022-11-29T15:42:57.970Z,97491.22
2022-11-29T15:45:27.265Z,97506.25
2022-11-29T15:47:54.708Z,97520.13
2022-11-29T15:50:33.009Z,97516.59
2022-11-29T15:53:06.669Z,97520.53
2022-11-29T15:55:33.589Z,97529.91
2022-11-29T15:58:08.507Z,97530.72
2022-11-29T16:00:36.494Z,97519.59
2022-11-29T16:03:05.611Z,97528.69
2022-11-29T16:05:36.716Z,97531.56
2022-11-29T16:08:20.290Z,97531.78
2022-11-29T16:10:53.182Z,97523.84
2022-11-29T16:13:25.898Z,97525.22
2022-11-29T16:16:16.634Z,97514.75
2022-11-29T16:18:46.317Z,97520.97
2022-11-29T16:21:30.683Z,97527.66
2022-11-29T16:23:58.151Z,97520.13
2022-11-29T16:26:32.017Z,97524.84
2022-11-29T16:28:58.444Z,97524.03
2022-11-29T16:31:33.137Z,97519.41
2022-11-29T16:34:15.124Z,97523.66
2022-11-29T16:36:41.537Z,97518.78
2022-11-29T16:39:21.703Z,97522.59
2022-11-29T16:42:05.763Z,97512.69
2022-11-29T16:44:41.353Z,97512.38
2022-11-29T16:47:18.743Z,97509.84
2022-11-29T16:49:45.247Z,97482.75
2022-11-29T16:52:25.260Z,97506.88
2022-11-29T16:54:51.964Z,97515.78
2022-11-29T16:57:18.703Z,97508.06
2022-11-29T16:59:46.519Z,97515.59
2022-11-29T17:02:14.557Z,97510.81
2022-11-29T17:04:41.886Z,97534.03
2022-11-29T17:07:15.283Z,97526.16
2022-11-29T17:09:42.001Z,97515.88
2022-11-29T17:12:13.653Z,97536.91
2022-11-29T17:14:40.079Z,97543.94
2022-11-29T17:17:06.724Z,97543.69
2022-11-29T17:19:33.113Z,97529.09
2022-11-29T17:21:59.511Z,97568.59
2022-11-29T17:24:25.979Z,97577.13
2022-11-29T17:26:52.431Z,97570.28
2022-11-29T17:29:19.005Z,97576.69
2022-11-29T17:31:46.721Z,97589.19
2022-11-29T17:34:13.674Z,97589.69
2022-11-29T17:36:40.904Z,97586.47
2022-11-29T17:39:07.954Z,97599.91
2022-11-29T17:41:34.462Z,97615.47
2022-11-29T17:44:01.083Z,97602.16
2022-11-29T17:46:27.519Z,97614.16
2022-11-29T17:48:54.725Z,97599.31
2022-11-29T17:51:50.686Z,97622.34
2022-11-29T17:54:10.572Z,97637.38
2022-11-29T17:56:37.003Z,97641.56
2022-11-29T17:59:04.789Z,97640.44
2022-11-29T18:01:34.041Z,97628.59
2022-11-29T18:04:02.551Z,97639.25
2022-11-29T18:06:33.507Z,97629.28
2022-11-29T18:09:01.380Z,97628.06
2022-11-29T18:11:43.005Z,97629.44
2022-11-29T18:14:13.186Z,97632.28
2022-11-29T18:16:39.950Z,97627.47
2022-11-29T18:19:12.681Z,97629.44
2022-11-29T18:21:39.116Z,97630.09
2022-11-29T18:24:06.812Z,97611.63
2022-11-29T18:26:35.296Z,97633.94
2022-11-29T18:29:02.037Z,97632.34
2022-11-29T18:31:31.177Z,97632.72
2022-11-29T18:34:00.294Z,97631.97
2022-11-29T18:36:29.249Z,97641.56
2022-11-29T18:39:00.520Z,97628.34
2022-11-29T18:41:29.213Z,97629.13
2022-11-29T18:44:07.533Z,97616.78
2022-11-29T18:46:36.841Z,97647.00
2022-11-29T18:49:08.397Z,97642.78
2022-11-29T18:51:36.403Z,97630.31
2022-11-29T18:54:03.709Z,97646.72
2022-11-29T18:56:32.037Z,97638.19
2022-11-29T18:58:58.878Z,97645.91
2022-11-29T19:01:28.324Z,97633.59
2022-11-29T19:03:57.091Z,97632.72
2022-11-29T19:06:32.807Z,97635.72
2022-11-29T19:09:05.068Z,97652.56
2022-11-29T19:11:33.176Z,97634.97
2022-11-29T19:14:03.185Z,97644.13
2022-11-29T19:16:33.017Z,97647.22
2022-11-29T19:19:00.414Z,97648.72
2022-11-29T19:21:29.025Z,97653.69
2022-11-29T19:24:00.744Z,97642.78
2022-11-29T19:26:29.327Z,97638.88
2022-11-29T19:28:56.692Z,97637.22
2022-11-29T19:31:25.184Z,97643.38
2022-11-29T19:33:52.747Z,97630.59
2022-11-29T19:36:27.391Z,97636.63
2022-11-29T19:38:54.860Z,97630.59
2022-11-29T19:41:27.467Z,97647.00
2022-11-29T19:43:55.778Z,97651.34
2022-11-29T19:46:24.640Z,97655.47
2022-11-29T19:48:56.152Z,97648.16
2022-11-29T19:51:23.749Z,97643.75
2022-11-29T19:53:58.832Z,97648.47
2022-11-29T19:56:25.630Z,97632.94
2022-11-29T19:58:52.574Z,97619.63
2022-11-29T20:01:25.185Z,97613.41
2022-11-29T20:03:52.405Z,97612.53
2022-11-29T20:06:19.660Z,97631.91
2022-11-29T20:08:46.198Z,97621.00
2022-11-29T20:11:14.061Z,97616.41
2022-11-29T20:13:42.164Z,97616.63
2022-11-29T20:16:14.840Z,97626.84
2022-11-29T20:18:48.964Z,97612.97
2022-11-29T20:21:23.469Z,97627.44
2022-11-29T20:23:55.560Z,97601.16
2022-11-29T20:26:23.096Z,97610.78
2022-11-29T20:28:49.620Z,97621.38
2022-11-29T20:31:18.829Z,97619.88
2022-11-29T20:33:46.528Z,97623.03
2022-11-29T20:36:34.275Z,97622.88
2022-11-29T20:39:16.789Z,97632.53
2022-11-29T20:41:56.258Z,97636.44
2022-11-29T20:44:38.129Z,97627.81
2022-11-29T20:47:17.689Z,97617.84
2022-11-29T20:49:44.922Z,97629.41
2022-11-29T20:52:37.606Z,97613.50
2022-11-29T20:55:05.236Z,97616.84
2022-11-29T20:57:31.739Z,97621.31
2022-11-29T20:59:58.463Z,97612.47
2022-11-29T21:02:25.035Z,97591.94
2022-11-29T21:04:52.479Z,97612.84
2022-11-29T21:07:19.077Z,97626.56
2022-11-29T21:09:45.811Z,97620.41
2022-11-29T21:12:12.819Z,97629.09
2022-11-29T21:14:39.486Z,97635.69
2022-11-29T21:17:06.147Z,97630.97
2022-11-29T21:19:32.864Z,97632.78
2022-11-29T21:22:19.788Z,97632.13
2022-11-29T21:25:01.560Z,97633.50
2022-11-29T21:27:32.118Z,97637.78
2022-11-29T21:29:59.061Z,97620.66
2022-11-29T21:32:27.439Z,97642.75
2022-11-29T21:34:53.844Z,97628.06
2022-11-29T21:37:22.577Z,97637.00
2022-11-29T21:39:51.447Z,97609.97
2022-11-29T21:42:18.135Z,97635.69
2022-11-29T21:44:45.137Z,97630.44
2022-11-29T21:47:11.952Z,97621.91
2022-11-29T21:49:38.689Z,97633.41
2022-11-29T21:52:06.357Z,97634.94
2022-11-29T21:54:33.547Z,97624.91
2022-11-29T21:56:59.968Z,97619.34
2022-11-29T21:59:26.420Z,97624.00
2022-11-29T22:01:54.320Z,97620.09
2022-11-29T22:04:21.448Z,97624.59
2022-11-29T22:06:47.913Z,97634.44
2022-11-29T22:09:14.910Z,97614.69
2022-11-29T22:11:41.366Z,97647.03
2022-11-29T22:14:17.860Z,97644.28
2022-11-29T22:16:56.283Z,97647.88
2022-11-29T22:19:26.673Z,97660.16
2022-11-29T22:21:55.785Z,97608.53
2022-11-29T22:24:24.822Z,97634.09
2022-11-29T22:26:52.694Z,97663.75
2022-11-29T22:29:20.201Z,97656.25
2022-11-29T22:31:48.974Z,97659.41
2022-11-29T22:34:15.991Z,97654.44
2022-11-29T22:36:42.715Z,97663.28
2022-11-29T22:39:09.453Z,97668.81
2022-11-29T22:41:37.784Z,97654.25
2022-11-29T22:44:05.269Z,97662.50
2022-11-29T22:46:32.145Z,97646.75
2022-11-29T22:49:00.650Z,97643.06
2022-11-29T22:51:34.976Z,97640.72
2022-11-29T22:54:03.869Z,97630.22
2022-11-29T22:56:33.158Z,97634.50
2022-11-29T22:59:01.290Z,97620.84
2022-11-29T23:01:30.183Z,97621.31
2022-11-29T23:03:58.767Z,97627.41
2022-11-29T23:06:27.449Z,97614.13
2022-11-29T23:08:56.167Z,97594.81
2022-11-29T23:11:26.785Z,97603.06
2022-11-29T23:13:53.950Z,97603.06
2022-11-29T23:16:23.149Z,97605.78
2022-11-29T23:18:49.971Z,97576.28
2022-11-29T23:21:22.590Z,97610.72
2022-11-29T23:23:55.861Z,97606.34
2022-11-29T23:26:29.863Z,97598.88
2022-11-29T23:28:57.160Z,97608.38
2022-11-29T23:31:24.182Z,97610.63
2022-11-29T23:33:50.985Z,97598.47
2022-11-29T23:36:17.854Z,97618.34
2022-11-29T23:38:44.352Z,97613.34
2022-11-29T23:41:11.951Z,97608.09
2022-11-29T23:43:40.686Z,97610.56
2022-11-29T23:46:14.951Z,97609.75
2022-11-29T23:48:41.938Z,97609.97
2022-11-29T23:51:08.946Z,97604.63
2022-11-29T23:53:35.355Z,97616.03
2022-11-29T23:56:04.306Z,97623.56
2022-11-29T23:58:32.104Z,97623.69
